sensor_id;sensor_type;location;lat;lon;timestamp;pressure;altitude;pressure_sealevel;temperature;humidity
70314;BME280;57725;47.526;18.986;2022-08-19T00:00:11;99308.03;;;25.38;61.07
70314;BME280;57725;47.526;18.986;2022-08-19T00:02:39;99303.50;;;25.38;60.98
70314;BME280;57725;47.526;18.986;2022-08-19T00:05:05;99305.34;;;25.38;61.26
70314;BME280;57725;47.526;18.986;2022-08-19T00:07:32;99304.69;;;25.36;61.33
70314;BME280;57725;47.526;18.986;2022-08-19T00:09:58;99303.00;;;25.35;61.50
70314;BME280;57725;47.526;18.986;2022-08-19T00:12:23;99301.34;;;25.34;61.27
70314;BME280;57725;47.526;18.986;2022-08-19T00:14:48;99302.00;;;25.36;61.63
70314;BME280;57725;47.526;18.986;2022-08-19T00:17:19;99295.31;;;25.32;61.17
70314;BME280;57725;47.526;18.986;2022-08-19T00:19:47;99299.66;;;25.33;61.44
70314;BME280;57725;47.526;18.986;2022-08-19T00:22:12;99300.66;;;25.32;61.56
70314;BME280;57725;47.526;18.986;2022-08-19T00:24:40;99293.66;;;25.31;61.72
70314;BME280;57725;47.526;18.986;2022-08-19T00:27:08;99296.50;;;25.29;61.40
70314;BME280;57725;47.526;18.986;2022-08-19T00:29:34;99301.00;;;25.29;61.47
70314;BME280;57725;47.526;18.986;2022-08-19T00:31:59;99306.34;;;25.29;61.25
70314;BME280;57725;47.526;18.986;2022-08-19T00:34:26;99303.69;;;25.29;61.67
70314;BME280;57725;47.526;18.986;2022-08-19T00:36:54;99301.19;;;25.27;61.54
70314;BME280;57725;47.526;18.986;2022-08-19T00:39:23;99300.38;;;25.27;61.69
70314;BME280;57725;47.526;18.986;2022-08-19T00:41:51;99308.41;;;25.27;61.64
70314;BME280;57725;47.526;18.986;2022-08-19T00:44:23;99300.16;;;25.28;61.71
70314;BME280;57725;47.526;18.986;2022-08-19T00:46:51;99302.84;;;25.28;61.48
70314;BME280;57725;47.526;18.986;2022-08-19T00:49:54;99302.38;;;25.24;61.44
70314;BME280;57725;47.526;18.986;2022-08-19T00:52:32;99289.00;;;25.24;61.56
70314;BME280;57725;47.526;18.986;2022-08-19T00:54:59;99291.00;;;25.22;61.59
70314;BME280;57725;47.526;18.986;2022-08-19T00:57:36;99295.53;;;25.22;61.58
70314;BME280;57725;47.526;18.986;2022-08-19T01:00:08;99296.53;;;25.21;61.83
70314;BME280;57725;47.526;18.986;2022-08-19T01:02:35;99294.69;;;25.21;61.62
70314;BME280;57725;47.526;18.986;2022-08-19T01:05:06;99287.69;;;25.20;61.46
70314;BME280;57725;47.526;18.986;2022-08-19T01:07:34;99283.16;;;25.21;61.97
70314;BME280;57725;47.526;18.986;2022-08-19T01:10:00;99281.66;;;25.18;61.53
70314;BME280;57725;47.526;18.986;2022-08-19T01:12:26;99292.34;;;25.18;61.82
70314;BME280;57725;47.526;18.986;2022-08-19T01:14:55;99289.84;;;25.17;61.82
70314;BME280;57725;47.526;18.986;2022-08-19T01:17:21;99286.16;;;25.18;61.56
70314;BME280;57725;47.526;18.986;2022-08-19T01:19:48;99280.81;;;25.18;62.04
70314;BME280;57725;47.526;18.986;2022-08-19T01:24:51;99275.00;;;25.14;61.97
70314;BME280;57725;47.526;18.986;2022-08-19T01:27:17;99275.19;;;25.13;62.01
70314;BME280;57725;47.526;18.986;2022-08-19T01:29:44;99276.00;;;25.13;61.92
70314;BME280;57725;47.526;18.986;2022-08-19T01:32:12;99283.19;;;25.13;62.02
70314;BME280;57725;47.526;18.986;2022-08-19T01:34:38;99278.03;;;25.11;61.81
70314;BME280;57725;47.526;18.986;2022-08-19T01:37:11;99272.66;;;25.11;61.96
70314;BME280;57725;47.526;18.986;2022-08-19T01:39:39;99266.66;;;25.09;62.29
70314;BME280;57725;47.526;18.986;2022-08-19T01:42:06;99261.47;;;25.08;61.95
70314;BME280;57725;47.526;18.986;2022-08-19T01:44:34;99262.31;;;25.08;62.30
70314;BME280;57725;47.526;18.986;2022-08-19T01:47:02;99262.31;;;25.08;62.14
70314;BME280;57725;47.526;18.986;2022-08-19T01:49:29;99252.78;;;25.06;62.27
70314;BME280;57725;47.526;18.986;2022-08-19T01:51:55;99251.13;;;25.05;62.07
70314;BME280;57725;47.526;18.986;2022-08-19T01:54:22;99251.13;;;25.05;62.08
70314;BME280;57725;47.526;18.986;2022-08-19T01:56:57;99247.59;;;25.04;61.91
70314;BME280;57725;47.526;18.986;2022-08-19T01:59:24;99245.75;;;25.05;62.45
70314;BME280;57725;47.526;18.986;2022-08-19T02:01:53;99247.59;;;25.04;62.08
70314;BME280;57725;47.526;18.986;2022-08-19T02:04:18;99246.78;;;25.04;62.04
70314;BME280;57725;47.526;18.986;2022-08-19T02:06:43;99236.28;;;25.02;62.28
70314;BME280;57725;47.526;18.986;2022-08-19T02:09:09;99236.28;;;25.02;62.41
70314;BME280;57725;47.526;18.986;2022-08-19T02:11:36;99231.09;;;25.01;62.09
70314;BME280;57725;47.526;18.986;2022-08-19T02:14:04;99230.25;;;25.00;62.18
70314;BME280;57725;47.526;18.986;2022-08-19T02:16:31;99236.44;;;25.01;62.00
70314;BME280;57725;47.526;18.986;2022-08-19T02:18:57;99234.78;;;25.00;62.08
70314;BME280;57725;47.526;18.986;2022-08-19T02:21:28;99239.28;;;24.99;62.32
70314;BME280;57725;47.526;18.986;2022-08-19T02:23:55;99241.13;;;24.99;62.24
70314;BME280;57725;47.526;18.986;2022-08-19T02:26:21;99229.59;;;24.98;62.08
70314;BME280;57725;47.526;18.986;2022-08-19T02:28:47;99225.25;;;24.97;62.33
70314;BME280;57725;47.526;18.986;2022-08-19T02:31:16;99220.91;;;24.96;62.22
70314;BME280;57725;47.526;18.986;2022-08-19T02:33:43;99218.41;;;24.95;62.20
70314;BME280;57725;47.526;18.986;2022-08-19T02:36:09;99230.75;;;24.96;62.47
70314;BME280;57725;47.526;18.986;2022-08-19T02:38:38;99241.63;;;24.94;62.57
70314;BME280;57725;47.526;18.986;2022-08-19T02:41:14;99239.97;;;24.93;62.47
70314;BME280;57725;47.526;18.986;2022-08-19T02:43:42;99234.59;;;24.93;62.18
70314;BME280;57725;47.526;18.986;2022-08-19T02:46:17;99232.94;;;24.92;62.55
70314;BME280;57725;47.526;18.986;2022-08-19T02:48:49;99235.63;;;24.92;62.62
70314;BME280;57725;47.526;18.986;2022-08-19T02:51:22;99243.63;;;24.92;62.22
70314;BME280;57725;47.526;18.986;2022-08-19T02:53:53;99242.97;;;24.90;62.24
70314;BME280;57725;47.526;18.986;2022-08-19T02:56:19;99251.81;;;24.90;62.61
70314;BME280;57725;47.526;18.986;2022-08-19T02:58:47;99264.34;;;24.90;62.41
70314;BME280;57725;47.526;18.986;2022-08-19T03:01:27;99262.69;;;24.89;62.60
70314;BME280;57725;47.526;18.986;2022-08-19T03:03:54;99262.69;;;24.89;62.53
70314;BME280;57725;47.526;18.986;2022-08-19T03:06:20;99259.19;;;24.88;62.71
70314;BME280;57725;47.526;18.986;2022-08-19T03:08:47;99253.16;;;24.86;62.35
70314;BME280;57725;47.526;18.986;2022-08-19T03:11:17;99264.84;;;24.85;62.74
70314;BME280;57725;47.526;18.986;2022-08-19T03:13:42;99261.19;;;24.86;62.67
70314;BME280;57725;47.526;18.986;2022-08-19T03:16:09;99274.72;;;24.85;62.65
70314;BME280;57725;47.526;18.986;2022-08-19T03:18:34;99273.03;;;24.84;62.56
70314;BME280;57725;47.526;18.986;2022-08-19T03:21:05;99281.22;;;24.82;62.56
70314;BME280;57725;47.526;18.986;2022-08-19T03:23:30;99275.03;;;24.82;62.74
70314;BME280;57725;47.526;18.986;2022-08-19T03:25:56;99285.75;;;24.82;62.53
70314;BME280;57725;47.526;18.986;2022-08-19T03:28:21;99279.75;;;24.80;62.68
70314;BME280;57725;47.526;18.986;2022-08-19T03:30:59;99285.09;;;24.80;62.74
70314;BME280;57725;47.526;18.986;2022-08-19T03:33:26;99285.94;;;24.80;62.44
70314;BME280;57725;47.526;18.986;2022-08-19T03:36:05;99286.94;;;24.79;62.83
70314;BME280;57725;47.526;18.986;2022-08-19T03:38:32;99294.13;;;24.79;62.63
70314;BME280;57725;47.526;18.986;2022-08-19T03:41:04;99286.09;;;24.79;62.56
70314;BME280;57725;47.526;18.986;2022-08-19T03:43:34;99284.44;;;24.78;62.54
70314;BME280;57725;47.526;18.986;2022-08-19T03:46:02;99287.09;;;24.78;62.85
70314;BME280;57725;47.526;18.986;2022-08-19T03:48:30;99291.28;;;24.80;62.89
70314;BME280;57725;47.526;18.986;2022-08-19T03:50:58;99285.09;;;24.80;62.58
70314;BME280;57725;47.526;18.986;2022-08-19T03:53:25;99292.09;;;24.81;62.91
70314;BME280;57725;47.526;18.986;2022-08-19T03:55:51;99293.13;;;24.80;62.87
70314;BME280;57725;47.526;18.986;2022-08-19T03:58:20;99308.13;;;24.81;62.79
70314;BME280;57725;47.526;18.986;2022-08-19T04:00:45;99298.28;;;24.81;62.78
70314;BME280;57725;47.526;18.986;2022-08-19T04:03:13;99296.78;;;24.79;62.87
70314;BME280;57725;47.526;18.986;2022-08-19T04:05:41;99287.94;;;24.78;62.98
70314;BME280;57725;47.526;18.986;2022-08-19T04:08:06;99301.63;;;24.75;62.82
70314;BME280;57725;47.526;18.986;2022-08-19T04:10:36;99309.66;;;24.75;62.66
70314;BME280;57725;47.526;18.986;2022-08-19T04:13:03;99311.16;;;24.78;62.74
70314;BME280;57725;47.526;18.986;2022-08-19T04:15:30;99315.00;;;24.75;62.94
70314;BME280;57725;47.526;18.986;2022-08-19T04:18:04;99315.16;;;24.74;62.70
70314;BME280;57725;47.526;18.986;2022-08-19T04:20:33;99321.84;;;24.78;62.85
70314;BME280;57725;47.526;18.986;2022-08-19T04:22:58;99321.19;;;24.76;62.86
70314;BME280;57725;47.526;18.986;2022-08-19T04:25:23;99318.00;;;24.72;63.08
70314;BME280;57725;47.526;18.986;2022-08-19T04:27:51;99308.16;;;24.73;62.87
70314;BME280;57725;47.526;18.986;2022-08-19T04:30:16;99308.97;;;24.73;62.80
70314;BME280;57725;47.526;18.986;2022-08-19T04:32:42;99313.66;;;24.71;63.45
70314;BME280;57725;47.526;18.986;2022-08-19T04:35:08;99320.84;;;24.71;63.31
70314;BME280;57725;47.526;18.986;2022-08-19T04:37:34;99325.69;;;24.75;62.77
70314;BME280;57725;47.526;18.986;2022-08-19T04:40:03;99323.69;;;24.77;62.64
70314;BME280;57725;47.526;18.986;2022-08-19T04:42:47;99327.03;;;24.79;62.63
70314;BME280;57725;47.526;18.986;2022-08-19T04:45:15;99328.03;;;24.78;62.62
70314;BME280;57725;47.526;18.986;2022-08-19T04:47:43;99325.38;;;24.78;63.03
70314;BME280;57725;47.526;18.986;2022-08-19T04:50:10;99320.19;;;24.77;63.10
70314;BME280;57725;47.526;18.986;2022-08-19T04:52:36;99317.69;;;24.75;63.20
70314;BME280;57725;47.526;18.986;2022-08-19T04:55:03;99312.50;;;24.74;62.66
70314;BME280;57725;47.526;18.986;2022-08-19T04:57:33;99316.34;;;24.71;63.15
70314;BME280;57725;47.526;18.986;2022-08-19T04:59:58;99325.88;;;24.74;63.05
70314;BME280;57725;47.526;18.986;2022-08-19T05:02:24;99327.03;;;24.71;63.20
70314;BME280;57725;47.526;18.986;2022-08-19T05:04:55;99330.53;;;24.72;63.21
70314;BME280;57725;47.526;18.986;2022-08-19T05:07:21;99322.69;;;24.70;63.00
70314;BME280;57725;47.526;18.986;2022-08-19T05:09:51;99327.03;;;24.71;62.97
70314;BME280;57725;47.526;18.986;2022-08-19T05:12:22;99325.19;;;24.72;63.12
70314;BME280;57725;47.526;18.986;2022-08-19T05:14:47;99331.38;;;24.72;63.19
70314;BME280;57725;47.526;18.986;2022-08-19T05:17:14;99326.19;;;24.71;63.14
70314;BME280;57725;47.526;18.986;2022-08-19T05:19:40;99330.53;;;24.72;63.01
70314;BME280;57725;47.526;18.986;2022-08-19T05:22:24;99322.69;;;24.70;63.30
70314;BME280;57725;47.526;18.986;2022-08-19T05:25:11;99320.38;;;24.67;63.19
70314;BME280;57725;47.526;18.986;2022-08-19T05:27:37;99324.72;;;24.68;63.25
70314;BME280;57725;47.526;18.986;2022-08-19T05:30:05;99326.56;;;24.68;63.46
70314;BME280;57725;47.526;18.986;2022-08-19T05:32:40;99323.19;;;24.66;63.40
70314;BME280;57725;47.526;18.986;2022-08-19T05:35:09;99321.53;;;24.65;63.35
70314;BME280;57725;47.526;18.986;2022-08-19T05:37:34;99328.72;;;24.64;63.33
70314;BME280;57725;47.526;18.986;2022-08-19T05:40:00;99333.38;;;24.62;63.89
70314;BME280;57725;47.526;18.986;2022-08-19T05:42:28;99332.56;;;24.62;63.62
70314;BME280;57725;47.526;18.986;2022-08-19T05:44:56;99330.88;;;24.61;63.51
70314;BME280;57725;47.526;18.986;2022-08-19T05:47:24;99327.53;;;24.59;64.22
70314;BME280;57725;47.526;18.986;2022-08-19T05:49:49;99328.53;;;24.58;63.48
70314;BME280;57725;47.526;18.986;2022-08-19T05:52:18;99334.72;;;24.58;63.56
70314;BME280;57725;47.526;18.986;2022-08-19T05:54:46;99333.25;;;24.56;64.13
70314;BME280;57725;47.526;18.986;2022-08-19T05:57:15;99327.72;;;24.57;64.11
70314;BME280;57725;47.526;18.986;2022-08-19T05:59:42;99324.22;;;24.57;64.34
70314;BME280;57725;47.526;18.986;2022-08-19T06:02:13;99332.03;;;24.58;64.08
70314;BME280;57725;47.526;18.986;2022-08-19T06:04:41;99332.72;;;24.60;64.20
70314;BME280;57725;47.526;18.986;2022-08-19T06:07:12;99334.56;;;24.60;64.23
70314;BME280;57725;47.526;18.986;2022-08-19T06:09:42;99332.72;;;24.60;64.00
70314;BME280;57725;47.526;18.986;2022-08-19T06:12:09;99330.03;;;24.60;63.99
70314;BME280;57725;47.526;18.986;2022-08-19T06:14:35;99327.22;;;24.62;64.27
70314;BME280;57725;47.526;18.986;2022-08-19T06:17:01;99327.22;;;24.62;64.29
70314;BME280;57725;47.526;18.986;2022-08-19T06:19:30;99321.53;;;24.65;63.96
70314;BME280;57725;47.526;18.986;2022-08-19T06:21:56;99327.56;;;24.67;64.10
70314;BME280;57725;47.526;18.986;2022-08-19T06:24:28;99325.88;;;24.66;64.15
70314;BME280;57725;47.526;18.986;2022-08-19T06:26:57;99326.56;;;24.68;63.98
70314;BME280;57725;47.526;18.986;2022-08-19T06:29:24;99313.00;;;24.69;64.11
70314;BME280;57725;47.526;18.986;2022-08-19T06:31:52;99314.84;;;24.69;64.44
70314;BME280;57725;47.526;18.986;2022-08-19T06:34:21;99312.81;;;24.71;64.62
70314;BME280;57725;47.526;18.986;2022-08-19T06:36:48;99310.00;;;24.72;64.18
70314;BME280;57725;47.526;18.986;2022-08-19T06:39:26;99317.84;;;24.74;64.35
70314;BME280;57725;47.526;18.986;2022-08-19T06:41:55;99309.66;;;24.75;64.42
70314;BME280;57725;47.526;18.986;2022-08-19T06:44:26;99309.31;;;24.78;64.63
70314;BME280;57725;47.526;18.986;2022-08-19T06:46:54;99311.16;;;24.78;64.38
70314;BME280;57725;47.526;18.986;2022-08-19T06:49:21;99308.31;;;24.79;64.44
70314;BME280;57725;47.526;18.986;2022-08-19T06:51:48;99313.47;;;24.81;64.75
70314;BME280;57725;47.526;18.986;2022-08-19T06:54:15;99304.44;;;24.82;64.78
70314;BME280;57725;47.526;18.986;2022-08-19T06:56:42;99315.16;;;24.82;64.66
70314;BME280;57725;47.526;18.986;2022-08-19T06:59:19;99326.69;;;24.82;64.79
70314;BME280;57725;47.526;18.986;2022-08-19T07:01:50;99334.69;;;24.82;64.35
70314;BME280;57725;47.526;18.986;2022-08-19T07:04:21;99331.19;;;24.82;64.36
70314;BME280;57725;47.526;18.986;2022-08-19T07:06:55;99336.38;;;24.83;64.49
70314;BME280;57725;47.526;18.986;2022-08-19T07:09:23;99340.88;;;24.83;64.66
70314;BME280;57725;47.526;18.986;2022-08-19T07:11:52;99341.72;;;24.83;64.43
70314;BME280;57725;47.526;18.986;2022-08-19T07:14:27;99345.22;;;24.84;64.55
70314;BME280;57725;47.526;18.986;2022-08-19T07:16:56;99340.72;;;24.84;64.40
70314;BME280;57725;47.526;18.986;2022-08-19T07:19:25;99342.53;;;24.84;64.34
70314;BME280;57725;47.526;18.986;2022-08-19T07:21:54;99345.22;;;24.84;64.64
70314;BME280;57725;47.526;18.986;2022-08-19T07:24:21;99341.53;;;24.85;64.63
70314;BME280;57725;47.526;18.986;2022-08-19T07:26:49;99344.38;;;24.83;64.45
70314;BME280;57725;47.526;18.986;2022-08-19T07:29:15;99337.19;;;24.84;64.24
70314;BME280;57725;47.526;18.986;2022-08-19T07:31:44;99336.19;;;24.85;64.00
70314;BME280;57725;47.526;18.986;2022-08-19T07:34:11;99342.53;;;24.84;64.14
70314;BME280;57725;47.526;18.986;2022-08-19T07:36:41;99338.88;;;24.85;64.09
70314;BME280;57725;47.526;18.986;2022-08-19T07:39:13;99334.53;;;24.84;64.00
70314;BME280;57725;47.526;18.986;2022-08-19T07:41:42;99333.53;;;24.85;63.85
70314;BME280;57725;47.526;18.986;2022-08-19T07:44:08;99333.53;;;24.85;64.17
70314;BME280;57725;47.526;18.986;2022-08-19T07:46:38;99334.53;;;24.84;63.75
70314;BME280;57725;47.526;18.986;2022-08-19T07:49:07;99336.19;;;24.85;63.79
70314;BME280;57725;47.526;18.986;2022-08-19T07:51:58;99330.03;;;24.84;63.96
70314;BME280;57725;47.526;18.986;2022-08-19T07:54:25;99330.84;;;24.85;64.06
70314;BME280;57725;47.526;18.986;2022-08-19T07:56:52;99326.50;;;24.84;63.72
70314;BME280;57725;47.526;18.986;2022-08-19T07:59:19;99329.03;;;24.85;63.97
70314;BME280;57725;47.526;18.986;2022-08-19T08:01:45;99323.66;;;24.85;63.81
70314;BME280;57725;47.526;18.986;2022-08-19T08:04:15;99332.53;;;24.86;63.81
70314;BME280;57725;47.526;18.986;2022-08-19T08:06:59;99324.66;;;24.84;63.82
70314;BME280;57725;47.526;18.986;2022-08-19T08:09:44;99329.03;;;24.85;63.66
70314;BME280;57725;47.526;18.986;2022-08-19T08:12:16;99327.00;;;24.87;63.46
70314;BME280;57725;47.526;18.986;2022-08-19T08:14:47;99338.53;;;24.88;63.79
70314;BME280;57725;47.526;18.986;2022-08-19T08:17:13;99335.88;;;24.88;63.86
70314;BME280;57725;47.526;18.986;2022-08-19T08:19:41;99328.69;;;24.88;63.63
70314;BME280;57725;47.526;18.986;2022-08-19T08:22:07;99340.22;;;24.89;63.63
70314;BME280;57725;47.526;18.986;2022-08-19T08:24:35;99330.34;;;24.89;63.26
70314;BME280;57725;47.526;18.986;2022-08-19T08:27:01;99333.03;;;24.89;63.43
70314;BME280;57725;47.526;18.986;2022-08-19T08:29:28;99329.34;;;24.90;63.70
70314;BME280;57725;47.526;18.986;2022-08-19T08:31:56;99327.53;;;24.91;63.25
70314;BME280;57725;47.526;18.986;2022-08-19T08:34:23;99329.34;;;24.90;63.41
70314;BME280;57725;47.526;18.986;2022-08-19T08:36:48;99323.84;;;24.92;62.97
70314;BME280;57725;47.526;18.986;2022-08-19T08:39:18;99320.16;;;24.93;63.43
70314;BME280;57725;47.526;18.986;2022-08-19T08:44:32;99315.50;;;24.95;63.19
70314;BME280;57725;47.526;18.986;2022-08-19T08:47:10;99307.47;;;24.95;63.17
70314;BME280;57725;47.526;18.986;2022-08-19T08:52:43;99292.94;;;24.98;62.68
70314;BME280;57725;47.526;18.986;2022-08-19T08:55:16;99293.75;;;24.98;63.05
70314;BME280;57725;47.526;18.986;2022-08-19T08:57:54;99298.28;;;24.98;62.86
70314;BME280;57725;47.526;18.986;2022-08-19T09:00:38;99311.47;;;24.99;62.49
70314;BME280;57725;47.526;18.986;2022-08-19T09:03:26;99301.63;;;25.00;62.67
70314;BME280;57725;47.526;18.986;2022-08-19T09:06:14;99296.09;;;25.01;62.28
70314;BME280;57725;47.526;18.986;2022-08-19T09:12:20;99293.06;;;25.04;62.47
70314;BME280;57725;47.526;18.986;2022-08-19T09:17:07;99300.91;;;25.06;62.41
70314;BME280;57725;47.526;18.986;2022-08-19T09:19:35;99299.91;;;25.07;62.46
70314;BME280;57725;47.526;18.986;2022-08-19T09:22:01;99286.53;;;25.07;62.02
70314;BME280;57725;47.526;18.986;2022-08-19T09:24:26;99282.88;;;25.08;62.29
70314;BME280;57725;47.526;18.986;2022-08-19T09:26:52;99292.41;;;25.10;62.06
70314;BME280;57725;47.526;18.986;2022-08-19T09:29:20;99279.84;;;25.11;62.08
70314;BME280;57725;47.526;18.986;2022-08-19T09:31:46;99269.00;;;25.12;62.20
70314;BME280;57725;47.526;18.986;2022-08-19T09:34:11;99273.34;;;25.13;61.74
70314;BME280;57725;47.526;18.986;2022-08-19T09:36:36;99273.16;;;25.15;62.10
70314;BME280;57725;47.526;18.986;2022-08-19T09:39:07;99279.31;;;25.15;62.02
70314;BME280;57725;47.526;18.986;2022-08-19T09:41:32;99264.94;;;25.16;62.04
70314;BME280;57725;47.526;18.986;2022-08-19T09:44:02;99273.63;;;25.18;61.63
70314;BME280;57725;47.526;18.986;2022-08-19T09:46:29;99271.63;;;25.20;61.97
70314;BME280;57725;47.526;18.986;2022-08-19T09:48:58;99263.44;;;25.22;61.91
70314;BME280;57725;47.526;18.986;2022-08-19T09:51:25;99253.56;;;25.22;61.78
70314;BME280;57725;47.526;18.986;2022-08-19T09:53:53;99248.22;;;25.22;61.32
70314;BME280;57725;47.526;18.986;2022-08-19T09:56:20;99244.38;;;25.25;61.46
70314;BME280;57725;47.526;18.986;2022-08-19T09:58:46;99238.84;;;25.27;61.59
70314;BME280;57725;47.526;18.986;2022-08-19T10:01:22;99237.81;;;25.27;61.40
70314;BME280;57725;47.526;18.986;2022-08-19T10:03:50;99246.50;;;25.30;61.57
70314;BME280;57725;47.526;18.986;2022-08-19T10:06:17;99246.34;;;25.31;61.19
70314;BME280;57725;47.526;18.986;2022-08-19T10:08:43;99242.66;;;25.32;61.11
70314;BME280;57725;47.526;18.986;2022-08-19T10:11:09;99247.00;;;25.33;61.13
70314;BME280;57725;47.526;18.986;2022-08-19T10:13:35;99249.50;;;25.35;61.27
70314;BME280;57725;47.526;18.986;2022-08-19T10:16:04;99248.31;;;25.37;61.38
70314;BME280;57725;47.526;18.986;2022-08-19T10:18:30;99234.94;;;25.37;61.24
70314;BME280;57725;47.526;18.986;2022-08-19T10:23:46;99231.91;;;25.40;60.70
70314;BME280;57725;47.526;18.986;2022-08-19T10:26:27;99231.56;;;25.43;60.48
70314;BME280;57725;47.526;18.986;2022-08-19T10:28:56;99225.19;;;25.44;60.46
70314;BME280;57725;47.526;18.986;2022-08-19T10:31:33;99225.03;;;25.46;60.91
70314;BME280;57725;47.526;18.986;2022-08-19T10:33:59;99223.19;;;25.46;60.80
70314;BME280;57725;47.526;18.986;2022-08-19T10:36:28;99227.34;;;25.49;60.33
70314;BME280;57725;47.526;18.986;2022-08-19T10:38:56;99225.50;;;25.49;60.55
70314;BME280;57725;47.526;18.986;2022-08-19T10:41:25;99233.34;;;25.51;60.18
70314;BME280;57725;47.526;18.986;2022-08-19T10:43:56;99228.66;;;25.53;60.17
70314;BME280;57725;47.526;18.986;2022-08-19T10:46:24;99242.69;;;25.55;60.43
70314;BME280;57725;47.526;18.986;2022-08-19T10:48:50;99239.84;;;25.56;60.48
70314;BME280;57725;47.526;18.986;2022-08-19T10:51:16;99230.81;;;25.57;60.02
70314;BME280;57725;47.526;18.986;2022-08-19T10:54:02;99233.31;;;25.59;59.88
70314;BME280;57725;47.526;18.986;2022-08-19T10:56:28;99239.34;;;25.61;60.03
70314;BME280;57725;47.526;18.986;2022-08-19T10:59:15;99232.13;;;25.61;59.99
70314;BME280;57725;47.526;18.986;2022-08-19T11:01:42;99238.16;;;25.64;59.81
70314;BME280;57725;47.526;18.986;2022-08-19T11:04:09;99231.63;;;25.66;59.63
70314;BME280;57725;47.526;18.986;2022-08-19T11:06:39;99235.97;;;25.67;60.22
70314;BME280;57725;47.526;18.986;2022-08-19T11:09:10;99231.44;;;25.68;59.80
70314;BME280;57725;47.526;18.986;2022-08-19T11:11:37;99224.06;;;25.70;59.55
70314;BME280;57725;47.526;18.986;2022-08-19T11:14:17;99218.53;;;25.71;59.46
70314;BME280;57725;47.526;18.986;2022-08-19T11:16:54;99223.72;;;25.73;59.61
70314;BME280;57725;47.526;18.986;2022-08-19T11:19:23;99223.34;;;25.76;59.85
70314;BME280;57725;47.526;18.986;2022-08-19T11:21:50;99217.81;;;25.77;59.90
70314;BME280;57725;47.526;18.986;2022-08-19T11:24:24;99226.50;;;25.79;59.72
70314;BME280;57725;47.526;18.986;2022-08-19T11:26:53;99225.50;;;25.80;59.70
70314;BME280;57725;47.526;18.986;2022-08-19T11:29:24;99222.47;;;25.83;59.23
70314;BME280;57725;47.526;18.986;2022-08-19T11:31:55;99218.97;;;25.83;59.55
70314;BME280;57725;47.526;18.986;2022-08-19T11:34:26;99226.63;;;25.86;59.14
70314;BME280;57725;47.526;18.986;2022-08-19T11:36:59;99224.59;;;25.88;59.00
70314;BME280;57725;47.526;18.986;2022-08-19T11:39:28;99221.75;;;25.89;59.01
70314;BME280;57725;47.526;18.986;2022-08-19T11:41:57;99226.09;;;25.90;59.01
70314;BME280;57725;47.526;18.986;2022-08-19T11:44:25;99217.88;;;25.92;58.75
70314;BME280;57725;47.526;18.986;2022-08-19T11:46:55;99206.16;;;25.93;59.32
70314;BME280;57725;47.526;18.986;2022-08-19T11:49:21;99213.19;;;25.94;59.24
70314;BME280;57725;47.526;18.986;2022-08-19T11:51:51;99197.13;;;25.94;58.93
70314;BME280;57725;47.526;18.986;2022-08-19T11:54:19;99205.59;;;25.97;58.65
70314;BME280;57725;47.526;18.986;2022-08-19T11:56:44;99211.78;;;25.98;58.70
70314;BME280;57725;47.526;18.986;2022-08-19T11:59:11;99201.75;;;26.00;58.62
70314;BME280;57725;47.526;18.986;2022-08-19T12:01:38;99197.22;;;26.01;58.61
70314;BME280;57725;47.526;18.986;2022-08-19T12:04:06;99197.03;;;26.02;58.78
70314;BME280;57725;47.526;18.986;2022-08-19T12:06:37;99193.34;;;26.03;58.88
70314;BME280;57725;47.526;18.986;2022-08-19T12:09:05;99195.69;;;26.06;58.71
70314;BME280;57725;47.526;18.986;2022-08-19T12:11:33;99198.16;;;26.08;58.15
70314;BME280;57725;47.526;18.986;2022-08-19T12:14:01;99199.81;;;26.09;58.76
70314;BME280;57725;47.526;18.986;2022-08-19T12:16:28;99188.94;;;26.10;58.51
70314;BME280;57725;47.526;18.986;2022-08-19T12:18:58;99199.47;;;26.12;58.45
70314;BME280;57725;47.526;18.986;2022-08-19T12:21:28;99200.28;;;26.12;58.13
70314;BME280;57725;47.526;18.986;2022-08-19T12:23:56;99201.13;;;26.13;58.03
70314;BME280;57725;47.526;18.986;2022-08-19T12:26:22;99199.09;;;26.15;58.01
70314;BME280;57725;47.526;18.986;2022-08-19T12:28:47;99202.63;;;26.15;58.08
70314;BME280;57725;47.526;18.986;2022-08-19T12:31:16;99207.97;;;26.15;57.98
70314;BME280;57725;47.526;18.986;2022-08-19T12:33:42;99201.44;;;26.18;58.22
70314;BME280;57725;47.526;18.986;2022-08-19T12:36:10;99203.09;;;26.19;57.73
70314;BME280;57725;47.526;18.986;2022-08-19T12:38:36;99194.03;;;26.20;58.19
70314;BME280;57725;47.526;18.986;2022-08-19T12:41:06;99194.69;;;26.22;58.18
70314;BME280;57725;47.526;18.986;2022-08-19T12:43:35;99194.69;;;26.22;57.90
70314;BME280;57725;47.526;18.986;2022-08-19T12:46:02;99186.63;;;26.22;57.65
70314;BME280;57725;47.526;18.986;2022-08-19T12:48:30;99179.25;;;26.24;57.62
70314;BME280;57725;47.526;18.986;2022-08-19T12:50:56;99176.59;;;26.24;57.58
70314;BME280;57725;47.526;18.986;2022-08-19T12:53:22;99171.88;;;26.26;57.73
70314;BME280;57725;47.526;18.986;2022-08-19T12:55:47;99163.00;;;26.25;57.54
70314;BME280;57725;47.526;18.986;2022-08-19T12:58:15;99165.50;;;26.27;57.61
70314;BME280;57725;47.526;18.986;2022-08-19T13:00:42;99161.84;;;26.28;57.55
70314;BME280;57725;47.526;18.986;2022-08-19T13:03:07;99173.41;;;26.28;57.22
70314;BME280;57725;47.526;18.986;2022-08-19T13:05:33;99172.38;;;26.29;57.66
70314;BME280;57725;47.526;18.986;2022-08-19T13:08:05;99164.97;;;26.31;57.19
70314;BME280;57725;47.526;18.986;2022-08-19T13:10:35;99157.75;;;26.32;57.51
70314;BME280;57725;47.526;18.986;2022-08-19T13:13:06;99162.09;;;26.33;57.64
70314;BME280;57725;47.526;18.986;2022-08-19T13:15:37;99166.47;;;26.34;57.27